createdAt,value
2023-05-04T00:00:50.881Z,15.40
2023-05-04T00:01:50.869Z,15.20
2023-05-04T00:02:50.976Z,16.40
2023-05-04T00:03:51.158Z,16.60
2023-05-04T00:04:50.924Z,15.10
2023-05-04T00:05:50.830Z,15.10
2023-05-04T00:06:50.838Z,14.20
2023-05-04T00:07:50.797Z,14.20
2023-05-04T00:08:50.857Z,13.90
2023-05-04T00:09:50.844Z,14.70
2023-05-04T00:10:50.749Z,16.10
2023-05-04T00:11:50.784Z,16.30
2023-05-04T00:12:50.840Z,16.30
2023-05-04T00:13:50.739Z,17.80
2023-05-04T00:14:50.702Z,16.90
2023-05-04T00:15:50.724Z,17.00
2023-05-04T00:16:50.713Z,16.70
2023-05-04T00:18:22.176Z,16.20
2023-05-04T00:18:50.660Z,16.10
2023-05-04T00:19:50.632Z,16.00
2023-05-04T00:20:50.631Z,17.20
2023-05-04T00:21:50.654Z,17.50
2023-05-04T00:22:50.615Z,16.70
2023-05-04T00:23:50.600Z,17.00
2023-05-04T00:24:50.583Z,17.30
2023-05-04T00:25:50.560Z,16.40
2023-05-04T00:26:50.583Z,17.50
2023-05-04T00:27:50.525Z,18.30
2023-05-04T00:28:50.534Z,18.50
2023-05-04T00:29:50.537Z,17.90
2023-05-04T00:30:50.530Z,16.70
2023-05-04T00:31:50.560Z,16.00
2023-05-04T00:32:50.510Z,16.70
2023-05-04T00:33:50.458Z,17.00
2023-05-04T00:34:50.439Z,17.20
2023-05-04T00:35:50.592Z,16.90
2023-05-04T00:36:50.442Z,16.20
2023-05-04T00:37:50.439Z,15.90
2023-05-04T00:38:50.403Z,17.00
2023-05-04T00:39:50.382Z,17.10
2023-05-04T00:40:50.357Z,15.80
2023-05-04T00:41:50.366Z,15.20
2023-05-04T00:42:50.364Z,14.90
2023-05-04T00:43:50.329Z,14.70
2023-05-04T00:44:50.310Z,15.10
2023-05-04T00:45:50.300Z,15.00
2023-05-04T00:46:50.362Z,16.40
2023-05-04T00:47:50.328Z,15.80
2023-05-04T00:48:50.295Z,15.90
2023-05-04T00:49:50.253Z,15.40
2023-05-04T00:50:50.225Z,15.30
2023-05-04T00:51:50.250Z,16.50
2023-05-04T00:52:50.240Z,16.70
2023-05-04T00:53:50.181Z,17.50
2023-05-04T00:54:50.213Z,17.50
2023-05-04T00:55:50.202Z,17.90
2023-05-04T00:56:50.183Z,18.20
2023-05-04T00:57:50.155Z,18.10
2023-05-04T00:58:50.132Z,18.60
2023-05-04T00:59:50.119Z,19.20
2023-05-04T01:00:50.129Z,19.00
2023-05-04T01:01:50.127Z,18.90
2023-05-04T01:02:50.151Z,20.60
2023-05-04T01:03:50.108Z,19.90
2023-05-04T01:04:50.042Z,19.20
2023-05-04T01:05:50.030Z,19.40
2023-05-04T01:06:50.070Z,19.40
2023-05-04T01:07:49.990Z,18.40
2023-05-04T01:08:49.999Z,18.10
2023-05-04T01:09:50.014Z,18.10
2023-05-04T01:10:49.975Z,17.90
2023-05-04T01:11:49.971Z,18.70
2023-05-04T01:12:50.003Z,19.00
2023-05-04T01:13:49.925Z,19.00
2023-05-04T01:14:49.955Z,19.30
2023-05-04T01:15:49.895Z,18.90
2023-05-04T01:16:49.992Z,19.50
2023-05-04T01:17:49.934Z,18.00
2023-05-04T01:18:49.861Z,17.70
2023-05-04T01:19:49.873Z,18.20
2023-05-04T01:20:49.835Z,17.60
2023-05-04T01:21:49.824Z,17.10
2023-05-04T01:22:49.842Z,18.00
2023-05-04T01:23:49.803Z,17.60
2023-05-04T01:24:49.791Z,18.00
2023-05-04T01:25:49.796Z,17.60
2023-05-04T01:26:49.759Z,15.40
2023-05-04T01:27:49.748Z,17.00
2023-05-04T01:28:49.714Z,16.90
2023-05-04T01:29:49.744Z,16.00
2023-05-04T01:30:49.758Z,16.20
2023-05-04T01:31:49.708Z,16.60
2023-05-04T01:32:49.741Z,16.40
2023-05-04T01:33:49.681Z,16.30
2023-05-04T01:34:49.692Z,15.70
2023-05-04T01:35:49.631Z,15.80
2023-05-04T01:36:49.644Z,16.50
2023-05-04T01:37:49.617Z,15.60
2023-05-04T01:38:49.619Z,16.50
2023-05-04T01:39:49.613Z,18.00
2023-05-04T01:40:49.601Z,17.50
2023-05-04T01:41:49.565Z,17.80
2023-05-04T01:42:49.562Z,17.30
2023-05-04T01:43:49.526Z,17.10
2023-05-04T01:44:49.541Z,17.30
2023-05-04T01:45:49.542Z,17.00
2023-05-04T01:46:49.494Z,16.50
2023-05-04T01:47:49.513Z,17.50
2023-05-04T01:48:49.458Z,16.50
2023-05-04T01:49:49.483Z,16.60
2023-05-04T01:50:49.450Z,17.20
2023-05-04T01:51:49.489Z,16.00
2023-05-04T01:52:49.404Z,15.70
2023-05-04T01:53:49.403Z,16.20
2023-05-04T01:54:49.410Z,16.00
2023-05-04T01:55:49.377Z,15.40
2023-05-04T01:56:49.362Z,15.70
2023-05-04T01:57:49.373Z,14.70
2023-05-04T01:58:49.330Z,15.40
2023-05-04T01:59:49.329Z,16.10
2023-05-04T02:00:49.318Z,15.20
2023-05-04T02:01:49.378Z,16.80
2023-05-04T02:02:49.373Z,16.30
2023-05-04T02:03:49.440Z,15.70
2023-05-04T02:04:49.262Z,15.40
2023-05-04T02:05:49.229Z,16.40
2023-05-04T02:06:49.240Z,15.40
2023-05-04T02:07:49.234Z,16.70
2023-05-04T02:08:49.202Z,16.60
2023-05-04T02:09:49.185Z,15.60
2023-05-04T02:10:49.187Z,16.50
2023-05-04T02:11:49.158Z,16.40
2023-05-04T02:12:49.209Z,15.40
2023-05-04T02:13:49.141Z,15.70
2023-05-04T02:14:49.183Z,15.90
2023-05-04T02:15:49.301Z,15.10
2023-05-04T02:16:49.094Z,15.60
2023-05-04T02:17:49.156Z,15.00
2023-05-04T02:18:49.069Z,15.10
2023-05-04T02:19:49.055Z,16.10
2023-05-04T02:20:49.059Z,16.50
2023-05-04T02:21:49.026Z,15.00
2023-05-04T02:22:49.011Z,15.30
2023-05-04T02:23:49.009Z,15.60
2023-05-04T02:24:49.038Z,15.50
2023-05-04T02:25:48.996Z,17.00
2023-05-04T02:26:48.949Z,15.40
2023-05-04T02:27:48.945Z,15.30
2023-05-04T02:28:48.948Z,15.30
2023-05-04T02:29:48.927Z,15.00
2023-05-04T02:30:48.945Z,14.00
2023-05-04T02:31:48.935Z,15.50
2023-05-04T02:32:48.927Z,16.10
2023-05-04T02:33:48.894Z,16.10
2023-05-04T02:34:48.888Z,17.70
2023-05-04T02:35:48.857Z,17.30
2023-05-04T02:36:48.832Z,17.80
2023-05-04T02:37:48.839Z,17.30
2023-05-04T02:38:48.813Z,16.10
2023-05-04T02:39:48.796Z,17.00
2023-05-04T02:40:48.776Z,16.70
2023-05-04T02:41:48.764Z,16.90
2023-05-04T02:42:48.776Z,16.60
2023-05-04T02:43:48.765Z,18.20
2023-05-04T02:44:48.739Z,17.00
2023-05-04T02:45:48.794Z,15.80
2023-05-04T02:46:48.719Z,16.40
2023-05-04T02:47:48.768Z,16.50
2023-05-04T02:48:48.663Z,16.10
2023-05-04T02:49:48.654Z,17.70
2023-05-04T02:50:48.680Z,18.00
2023-05-04T02:51:48.643Z,17.60
2023-05-04T02:52:48.635Z,17.50
2023-05-04T02:53:48.599Z,17.70
2023-05-04T02:54:49.015Z,18.40
2023-05-04T02:55:48.619Z,19.90
2023-05-04T02:56:48.580Z,19.30
2023-05-04T02:57:48.542Z,18.90
2023-05-04T02:58:48.538Z,19.60
2023-05-04T02:59:48.534Z,20.70
2023-05-04T03:00:48.523Z,18.60
2023-05-04T03:01:48.617Z,18.90
2023-05-04T03:02:48.546Z,19.30
2023-05-04T03:03:48.550Z,18.70
2023-05-04T03:04:48.478Z,20.30
2023-05-04T03:05:48.442Z,19.10
2023-05-04T03:06:48.448Z,17.00
2023-05-04T03:07:48.456Z,17.70
2023-05-04T03:08:48.426Z,18.00
2023-05-04T03:09:48.398Z,17.20
2023-05-04T03:10:48.362Z,17.70
2023-05-04T03:11:48.372Z,16.40
2023-05-04T03:12:48.459Z,16.40
2023-05-04T03:13:48.349Z,16.40
2023-05-04T03:14:48.340Z,17.40
2023-05-04T03:15:48.360Z,18.70
2023-05-04T03:16:48.416Z,18.30
2023-05-04T03:17:48.348Z,18.40
2023-05-04T03:19:09.299Z,17.90
2023-05-04T03:19:48.262Z,17.20
2023-05-04T03:20:48.274Z,17.30
2023-05-04T03:21:48.275Z,17.10
2023-05-04T03:22:48.225Z,16.40
2023-05-04T03:23:48.207Z,16.30
2023-05-04T03:24:48.219Z,17.00
2023-05-04T03:25:48.233Z,17.80
2023-05-04T03:26:48.181Z,17.50
2023-05-04T03:27:48.165Z,17.00
2023-05-04T03:28:48.141Z,17.00
2023-05-04T03:29:48.135Z,16.50
2023-05-04T03:30:48.144Z,15.60
2023-05-04T03:31:48.177Z,16.30
2023-05-04T03:32:48.127Z,16.00
2023-05-04T03:33:48.081Z,17.30
2023-05-04T03:34:48.066Z,17.10
2023-05-04T03:35:48.051Z,17.70
2023-05-04T03:36:48.057Z,17.60
2023-05-04T03:37:48.024Z,18.50
2023-05-04T03:38:48.005Z,19.00
2023-05-04T03:39:48.003Z,20.60
2023-05-04T03:40:48.016Z,19.10
2023-05-04T03:41:47.968Z,18.30
2023-05-04T03:42:47.984Z,18.80
2023-05-04T03:43:47.943Z,18.00
2023-05-04T03:44:47.940Z,17.60
2023-05-04T03:45:47.956Z,16.80
2023-05-04T03:46:47.925Z,16.50
2023-05-04T03:47:47.953Z,16.70
2023-05-04T03:48:47.879Z,16.10
2023-05-04T03:49:47.908Z,15.60
2023-05-04T03:50:47.870Z,16.70
2023-05-04T03:51:47.839Z,17.40
2023-05-04T03:52:47.837Z,17.60
2023-05-04T03:53:47.826Z,19.10
2023-05-04T03:54:47.810Z,18.00
2023-05-04T03:55:47.807Z,17.20
2023-05-04T03:56:47.767Z,17.40
2023-05-04T03:57:47.772Z,17.00
2023-05-04T03:58:47.757Z,16.00
2023-05-04T03:59:47.763Z,15.00
2023-05-04T04:00:47.753Z,17.30
2023-05-04T04:01:47.720Z,16.50
2023-05-04T04:02:47.855Z,15.90
2023-05-04T04:03:47.751Z,16.80
2023-05-04T04:04:47.723Z,17.10
2023-05-04T04:05:47.658Z,16.80
2023-05-04T04:06:47.734Z,25.60
2023-05-04T04:07:47.626Z,19.50
2023-05-04T04:08:47.620Z,17.00
2023-05-04T04:09:47.618Z,16.40
2023-05-04T04:10:47.595Z,16.30
2023-05-04T04:11:47.599Z,15.70
2023-05-04T04:12:47.600Z,16.20
2023-05-04T04:13:47.589Z,16.20
2023-05-04T04:14:47.561Z,15.60
2023-05-04T04:15:47.557Z,15.60
2023-05-04T04:16:47.569Z,15.40
2023-05-04T04:17:47.516Z,15.50
2023-05-04T04:18:47.480Z,17.40
2023-05-04T04:19:47.511Z,16.80
2023-05-04T04:20:47.466Z,15.00
2023-05-04T04:21:47.443Z,16.40
2023-05-04T04:22:47.430Z,16.30
2023-05-04T04:23:47.443Z,15.70
2023-05-04T04:24:47.415Z,16.30
2023-05-04T04:25:47.439Z,15.30
2023-05-04T04:26:47.385Z,15.10
2023-05-04T04:27:47.400Z,15.30
2023-05-04T04:28:47.355Z,15.20
2023-05-04T04:29:47.338Z,15.30
2023-05-04T04:30:47.371Z,14.70
2023-05-04T04:31:47.398Z,14.10
2023-05-04T04:32:47.344Z,13.80
2023-05-04T04:33:47.266Z,13.80
2023-05-04T04:34:47.296Z,13.80
2023-05-04T04:35:47.270Z,13.80
2023-05-04T04:36:47.239Z,13.60
2023-05-04T04:37:47.240Z,14.20
2023-05-04T04:38:47.238Z,13.50
2023-05-04T04:39:47.234Z,13.00
2023-05-04T04:40:47.192Z,13.60
2023-05-04T04:41:47.187Z,14.30
2023-05-04T04:42:47.182Z,14.10
2023-05-04T04:43:47.151Z,13.10
2023-05-04T04:44:47.160Z,13.30
2023-05-04T04:45:47.131Z,13.00
2023-05-04T04:46:47.212Z,12.70
2023-05-04T04:47:47.170Z,13.40
2023-05-04T04:48:47.097Z,14.30
2023-05-04T04:49:47.092Z,13.70
2023-05-04T04:50:47.084Z,13.50
2023-05-04T04:51:47.052Z,14.80
2023-05-04T04:52:47.049Z,15.80
2023-05-04T04:53:47.031Z,16.70
2023-05-04T04:54:47.016Z,17.20
2023-05-04T04:55:47.025Z,16.30
2023-05-04T04:56:46.983Z,16.80
2023-05-04T04:57:46.981Z,16.00
2023-05-04T04:58:46.996Z,14.60
2023-05-04T04:59:46.975Z,15.70
2023-05-04T05:00:46.952Z,15.10
2023-05-04T05:01:46.946Z,14.70
2023-05-04T05:02:46.940Z,14.50
2023-05-04T05:03:46.886Z,12.70
2023-05-04T05:04:46.955Z,12.60
2023-05-04T05:05:46.854Z,13.00
2023-05-04T05:06:46.866Z,13.20
2023-05-04T05:07:46.884Z,12.60
2023-05-04T05:08:46.864Z,13.10
2023-05-04T05:09:46.850Z,13.30
2023-05-04T05:10:46.800Z,13.30
2023-05-04T05:11:46.786Z,12.70
2023-05-04T05:12:46.843Z,12.30
2023-05-04T05:13:46.767Z,13.20
2023-05-04T05:14:46.757Z,13.80
2023-05-04T05:15:46.731Z,13.50
2023-05-04T05:16:46.739Z,13.20
2023-05-04T05:17:46.759Z,13.90
2023-05-04T05:18:46.707Z,14.00
2023-05-04T05:19:46.830Z,13.10
2023-05-04T05:20:46.698Z,13.60
2023-05-04T05:21:46.669Z,13.00
2023-05-04T05:22:46.651Z,13.30
2023-05-04T05:23:46.628Z,13.70
2023-05-04T05:24:46.666Z,13.50
2023-05-04T05:25:46.602Z,14.90
2023-05-04T05:26:46.630Z,14.10
2023-05-04T05:27:46.626Z,18.40
2023-05-04T05:28:46.552Z,26.10
2023-05-04T05:29:46.574Z,18.10
2023-05-04T05:30:46.588Z,15.50
2023-05-04T05:31:46.508Z,12.80
2023-05-04T05:32:48.457Z,13.00
2023-05-04T05:33:46.481Z,13.70
2023-05-04T05:34:46.498Z,13.40
2023-05-04T05:35:46.497Z,12.80
2023-05-04T05:36:46.460Z,13.10
2023-05-04T05:37:46.469Z,12.50
2023-05-04T05:38:48.312Z,13.40
2023-05-04T05:39:46.434Z,13.00
2023-05-04T05:40:46.430Z,12.10
2023-05-04T05:41:46.421Z,10.70
2023-05-04T05:42:46.353Z,10.70
2023-05-04T05:43:46.355Z,9.40
2023-05-04T05:44:46.347Z,9.60
2023-05-04T05:45:46.473Z,9.30
2023-05-04T05:46:46.430Z,9.60
2023-05-04T05:47:46.372Z,9.00
2023-05-04T05:48:46.294Z,9.40
2023-05-04T05:49:46.642Z,9.50
2023-05-04T05:50:46.261Z,10.00
2023-05-04T05:51:46.305Z,9.10
2023-05-04T05:52:46.359Z,9.20
2023-05-04T05:53:46.222Z,9.60
2023-05-04T05:54:46.236Z,9.60
2023-05-04T05:55:46.196Z,9.60
2023-05-04T05:56:46.222Z,9.90
2023-05-04T05:57:46.220Z,10.10
2023-05-04T05:58:46.156Z,9.90
2023-05-04T05:59:46.185Z,9.50
2023-05-04T06:00:46.139Z,8.90
2023-05-04T06:01:46.130Z,9.50
2023-05-04T06:02:46.222Z,9.50
2023-05-04T06:03:46.355Z,9.80
2023-05-04T06:04:46.210Z,9.70
2023-05-04T06:05:46.097Z,9.10
2023-05-04T06:06:46.320Z,9.00
2023-05-04T06:07:46.061Z,9.40
2023-05-04T06:08:46.051Z,8.30
2023-05-04T06:09:46.037Z,8.30
2023-05-04T06:10:46.114Z,8.50
2023-05-04T06:11:46.002Z,8.20
2023-05-04T06:12:46.030Z,8.60
2023-05-04T06:13:45.976Z,8.40
2023-05-04T06:14:45.961Z,8.10
2023-05-04T06:15:45.962Z,9.50
2023-05-04T06:16:46.076Z,8.70
2023-05-04T06:17:45.967Z,8.00
2023-05-04T06:18:45.918Z,8.30
2023-05-04T06:19:46.124Z,7.60
2023-05-04T06:20:45.909Z,8.40
2023-05-04T06:21:45.843Z,7.80
2023-05-04T06:22:45.860Z,8.00
2023-05-04T06:23:45.829Z,7.80
2023-05-04T06:24:45.856Z,7.00
2023-05-04T06:25:45.802Z,7.40
2023-05-04T06:26:45.790Z,6.60
2023-05-04T06:27:45.801Z,6.50
2023-05-04T06:28:45.889Z,6.70
2023-05-04T06:29:45.791Z,5.80
2023-05-04T06:30:45.758Z,6.10
2023-05-04T06:31:46.839Z,5.90
2023-05-04T06:32:45.778Z,6.40
2023-05-04T06:33:45.690Z,6.20
2023-05-04T06:34:45.690Z,6.30
2023-05-04T06:35:45.702Z,6.10
2023-05-04T06:36:45.689Z,6.80
2023-05-04T06:37:45.679Z,5.80
2023-05-04T06:38:45.643Z,5.40
2023-05-04T06:39:45.637Z,5.50
2023-05-04T06:40:45.612Z,5.40
2023-05-04T06:41:45.633Z,5.70
2023-05-04T06:42:45.591Z,5.90
2023-05-04T06:43:45.569Z,5.10
2023-05-04T06:44:45.554Z,5.50
2023-05-04T06:45:45.570Z,5.30
2023-05-04T06:46:45.692Z,5.70
2023-05-04T06:47:45.550Z,5.40
2023-05-04T06:48:45.495Z,5.10
2023-05-04T06:49:45.488Z,5.20
2023-05-04T06:50:45.529Z,5.20
2023-05-04T06:51:45.468Z,5.70
2023-05-04T06:52:45.442Z,5.40
2023-05-04T06:53:45.437Z,6.10
2023-05-04T06:54:45.467Z,5.90
2023-05-04T06:55:45.401Z,5.70
2023-05-04T06:56:45.395Z,5.40
2023-05-04T06:57:45.408Z,4.60
2023-05-04T06:58:45.355Z,4.90
2023-05-04T06:59:45.344Z,4.60
2023-05-04T07:00:45.374Z,5.00
2023-05-04T07:01:45.415Z,4.80
2023-05-04T07:02:45.342Z,4.70
2023-05-04T07:03:45.397Z,4.80
2023-05-04T07:04:45.276Z,5.10
2023-05-04T07:05:45.279Z,4.60
2023-05-04T07:06:45.248Z,4.50
2023-05-04T07:07:45.240Z,4.90
2023-05-04T07:08:45.276Z,4.10
2023-05-04T07:09:45.220Z,4.40
2023-05-04T07:10:45.229Z,4.40
2023-05-04T07:11:45.188Z,4.70
2023-05-04T07:12:45.212Z,4.20
2023-05-04T07:13:45.212Z,4.80
2023-05-04T07:14:45.141Z,4.50
2023-05-04T07:15:45.179Z,4.40
2023-05-04T07:16:45.210Z,4.50
2023-05-04T07:17:45.186Z,4.50
2023-05-04T07:18:45.126Z,4.60
2023-05-04T07:19:45.117Z,4.50
2023-05-04T07:20:45.051Z,4.70
2023-05-04T07:21:45.046Z,4.20
2023-05-04T07:22:45.074Z,4.70
2023-05-04T07:23:45.059Z,4.00
2023-05-04T07:24:45.010Z,4.20
2023-05-04T07:25:44.980Z,4.20
2023-05-04T07:26:44.976Z,4.50
2023-05-04T07:27:45.028Z,4.20
2023-05-04T07:28:44.958Z,4.30
2023-05-04T07:29:44.937Z,4.10
2023-05-04T07:30:44.933Z,4.10
2023-05-04T07:31:45.011Z,4.30
2023-05-04T07:32:44.914Z,4.50
2023-05-04T07:33:44.905Z,4.00
2023-05-04T07:34:46.462Z,4.40
2023-05-04T07:35:44.881Z,3.90
2023-05-04T07:36:44.850Z,4.50
2023-05-04T07:37:44.846Z,4.20
2023-05-04T07:38:44.872Z,4.30
2023-05-04T07:39:44.838Z,4.20
2023-05-04T07:40:44.803Z,4.10
2023-05-04T07:41:44.780Z,3.90
2023-05-04T07:42:44.767Z,4.20
2023-05-04T07:43:44.795Z,3.90
2023-05-04T07:44:44.758Z,4.30
2023-05-04T07:45:44.790Z,4.10
2023-05-04T07:46:44.704Z,4.10
2023-05-04T07:47:44.762Z,4.60
2023-05-04T07:48:44.716Z,4.10
2023-05-04T07:49:44.659Z,6.90
2023-05-04T07:50:44.690Z,4.00
2023-05-04T07:51:44.663Z,3.90
2023-05-04T07:52:44.816Z,4.70
2023-05-04T07:53:44.648Z,4.50
2023-05-04T07:54:44.610Z,4.10
2023-05-04T07:55:44.632Z,4.60
2023-05-04T07:56:44.585Z,5.50
2023-05-04T07:57:44.578Z,5.20
2023-05-04T07:58:44.570Z,4.50
2023-05-04T07:59:44.552Z,4.40
2023-05-04T08:00:44.565Z,4.50
2023-05-04T08:01:44.560Z,4.90
2023-05-04T08:02:44.567Z,5.70
2023-05-04T08:03:44.492Z,4.70
2023-05-04T08:04:44.692Z,5.30
2023-05-04T08:05:44.537Z,4.90
2023-05-04T08:06:44.479Z,5.50
2023-05-04T08:07:44.444Z,4.80
2023-05-04T08:08:44.441Z,4.70
2023-05-04T08:09:44.450Z,4.90
2023-05-04T08:10:44.409Z,4.60
2023-05-04T08:11:44.409Z,5.00
2023-05-04T08:12:44.412Z,4.70
2023-05-04T08:13:44.355Z,4.80
2023-05-04T08:14:44.384Z,4.70
2023-05-04T08:15:44.352Z,4.60
2023-05-04T08:16:44.439Z,4.80
2023-05-04T08:17:44.325Z,4.90
2023-05-04T08:18:44.286Z,5.50
2023-05-04T08:19:44.286Z,4.70
2023-05-04T08:20:44.257Z,4.60
2023-05-04T08:21:44.255Z,4.60
2023-05-04T08:22:44.245Z,4.70
2023-05-04T08:23:44.211Z,4.90
2023-05-04T08:24:44.200Z,5.00
2023-05-04T08:25:44.209Z,4.70
2023-05-04T08:26:47.409Z,4.80
2023-05-04T08:27:44.208Z,4.40
2023-05-04T08:28:44.244Z,4.70
2023-05-04T08:29:44.153Z,4.20
2023-05-04T08:30:44.131Z,4.50
2023-05-04T08:31:44.262Z,4.60
2023-05-04T08:32:44.334Z,4.90
2023-05-04T08:33:44.129Z,5.10
2023-05-04T08:34:44.089Z,5.00
2023-05-04T08:35:44.063Z,4.80
2023-05-04T08:36:44.053Z,5.00
2023-05-04T08:37:44.086Z,4.90
2023-05-04T08:38:44.046Z,5.00
2023-05-04T08:39:44.015Z,4.80
2023-05-04T08:40:44.043Z,4.90
2023-05-04T08:41:43.995Z,4.90
2023-05-04T08:42:43.975Z,4.80
2023-05-04T08:43:43.961Z,4.60
2023-05-04T08:44:44.031Z,4.80
2023-05-04T08:45:43.959Z,4.70
2023-05-04T08:46:43.957Z,4.60
2023-05-04T08:48:14.441Z,4.90
2023-05-04T08:48:43.895Z,4.80
2023-05-04T08:49:43.919Z,4.90
2023-05-04T08:50:43.883Z,4.80
2023-05-04T08:51:43.914Z,4.90
2023-05-04T08:52:43.829Z,4.50
2023-05-04T08:53:43.844Z,4.50
2023-05-04T08:54:43.819Z,4.80
2023-05-04T08:55:43.800Z,4.30
2023-05-04T08:56:43.812Z,4.80
2023-05-04T08:57:43.787Z,4.70
2023-05-04T08:58:43.882Z,4.80
2023-05-04T08:59:43.752Z,4.50
2023-05-04T09:00:43.825Z,4.30
2023-05-04T09:01:43.741Z,4.20
2023-05-04T09:02:43.804Z,4.10
2023-05-04T09:03:43.796Z,4.40
2023-05-04T09:04:43.696Z,4.20
2023-05-04T09:05:43.679Z,4.40
2023-05-04T09:06:43.657Z,4.60
2023-05-04T09:07:43.663Z,4.40
2023-05-04T09:08:43.619Z,4.20
2023-05-04T09:09:43.641Z,4.60
2023-05-04T09:10:43.641Z,4.60
2023-05-04T09:11:43.579Z,5.00
2023-05-04T09:12:43.612Z,4.80
2023-05-04T09:13:43.562Z,4.40
2023-05-04T09:14:43.545Z,4.80
2023-05-04T09:15:43.560Z,4.40
2023-05-04T09:16:43.564Z,4.70
2023-05-04T09:17:57.048Z,4.60
2023-05-04T09:18:43.488Z,4.70
2023-05-04T09:19:43.490Z,4.80
2023-05-04T09:20:43.469Z,4.60
2023-05-04T09:21:43.479Z,4.40
2023-05-04T09:22:43.462Z,4.40
2023-05-04T09:23:43.432Z,4.50
2023-05-04T09:24:43.414Z,4.80
2023-05-04T09:25:43.398Z,4.20
2023-05-04T09:26:43.416Z,4.80
2023-05-04T09:27:43.364Z,4.60
2023-05-04T09:28:43.349Z,4.50
2023-05-04T09:29:43.378Z,4.20
2023-05-04T09:30:43.461Z,4.10
2023-05-04T09:31:43.306Z,4.20
2023-05-04T09:32:43.370Z,4.40
2023-05-04T09:33:43.298Z,4.70
2023-05-04T09:34:43.297Z,4.40
2023-05-04T09:35:43.261Z,4.50
2023-05-04T09:36:43.267Z,5.00
2023-05-04T09:37:43.231Z,4.60
2023-05-04T09:38:43.254Z,4.70
2023-05-04T09:39:43.239Z,4.50
2023-05-04T09:40:43.195Z,4.40
2023-05-04T09:41:43.251Z,4.40
2023-05-04T09:42:43.172Z,4.50
2023-05-04T09:43:43.189Z,4.10
2023-05-04T09:44:43.270Z,4.30
2023-05-04T09:45:43.135Z,4.20
2023-05-04T09:46:43.129Z,4.20
2023-05-04T09:47:43.133Z,3.80
2023-05-04T09:48:43.085Z,4.80
2023-05-04T09:49:43.106Z,4.30
2023-05-04T09:50:43.062Z,4.50
2023-05-04T09:51:43.067Z,4.40
2023-05-04T09:52:43.035Z,4.30
2023-05-04T09:53:43.016Z,3.90
2023-05-04T09:54:43.009Z,4.50
2023-05-04T09:55:42.996Z,4.50
2023-05-04T09:56:43.003Z,4.30
2023-05-04T09:57:42.965Z,4.50
2023-05-04T09:58:42.975Z,3.80
2023-05-04T09:59:42.956Z,4.10
2023-05-04T10:00:42.926Z,4.10
2023-05-04T10:01:44.803Z,3.70
2023-05-04T10:02:42.988Z,3.80
2023-05-04T10:03:42.903Z,3.60
2023-05-04T10:04:42.873Z,3.80
2023-05-04T10:05:42.988Z,3.80
2023-05-04T10:06:42.845Z,3.50
2023-05-04T10:07:42.866Z,3.60
2023-05-04T10:08:42.819Z,4.10
2023-05-04T10:11:10.682Z,3.70
2023-05-04T10:11:16.054Z,4.00
2023-05-04T10:12:16.071Z,3.60
2023-05-04T10:13:16.117Z,3.80
2023-05-04T10:14:16.024Z,3.40
2023-05-04T10:15:16.012Z,3.70
2023-05-04T10:16:16.057Z,3.70
2023-05-04T10:17:15.962Z,3.60
2023-05-04T10:18:15.957Z,3.90
2023-05-04T10:19:15.951Z,3.70
2023-05-04T10:20:15.912Z,4.00
2023-05-04T10:21:15.932Z,3.90
2023-05-04T10:22:15.926Z,3.90
2023-05-04T10:23:15.883Z,3.60
2023-05-04T10:24:15.886Z,3.70
2023-05-04T10:25:15.854Z,3.70
2023-05-04T10:26:15.857Z,3.70
2023-05-04T10:27:15.869Z,3.70
2023-05-04T10:28:15.825Z,4.10
2023-05-04T10:29:15.791Z,3.30
2023-05-04T10:30:15.791Z,3.20
2023-05-04T10:31:15.817Z,3.30
2023-05-04T10:32:15.858Z,3.60
2023-05-04T10:33:15.738Z,3.50
2023-05-04T10:34:15.739Z,3.70
2023-05-04T10:35:15.727Z,3.70
2023-05-04T10:36:15.769Z,3.50
2023-05-04T10:37:15.702Z,3.70
2023-05-04T10:38:15.672Z,3.60
2023-05-04T10:39:15.668Z,3.60
2023-05-04T10:40:15.706Z,3.40
2023-05-04T10:41:15.644Z,3.60
2023-05-04T10:42:15.649Z,3.50
2023-05-04T10:43:15.630Z,4.40
2023-05-04T10:44:15.606Z,3.80
2023-05-04T10:45:15.616Z,4.10
2023-05-04T10:46:15.620Z,4.40
2023-05-04T10:47:15.615Z,5.00
2023-05-04T10:48:15.559Z,3.90
2023-05-04T10:49:15.522Z,3.70
2023-05-04T10:50:15.548Z,3.40
2023-05-04T10:51:15.527Z,3.50
2023-05-04T10:52:15.530Z,3.70
2023-05-04T10:53:15.497Z,3.80
2023-05-04T10:54:15.462Z,3.70
2023-05-04T10:55:15.514Z,3.40
2023-05-04T10:56:15.475Z,3.50
2023-05-04T10:57:15.427Z,3.40
2023-05-04T10:58:15.415Z,3.50
2023-05-04T10:59:15.437Z,3.60
2023-05-04T11:00:15.391Z,3.40
2023-05-04T11:01:15.385Z,3.70
2023-05-04T11:02:15.397Z,3.20
2023-05-04T11:03:15.548Z,3.80
2023-05-04T11:04:15.383Z,3.60
2023-05-04T11:05:15.422Z,3.50
2023-05-04T11:06:15.351Z,3.60
2023-05-04T11:07:15.308Z,3.40
2023-05-04T11:08:15.278Z,3.50
2023-05-04T11:09:15.286Z,3.20
2023-05-04T11:10:15.400Z,3.40
2023-05-04T11:11:15.239Z,3.00
2023-05-04T11:12:15.243Z,3.60
2023-05-04T11:13:15.258Z,3.20
2023-05-04T11:14:15.218Z,3.10
2023-05-04T11:15:15.219Z,3.40
2023-05-04T11:16:15.213Z,3.20
2023-05-04T11:18:15.462Z,3.30
2023-05-04T11:19:15.154Z,3.30
2023-05-04T11:20:15.166Z,3.70
2023-05-04T11:21:15.126Z,3.40
2023-05-04T11:22:15.090Z,3.20
2023-05-04T11:23:15.118Z,3.70
2023-05-04T11:24:15.078Z,3.60
2023-05-04T11:25:15.088Z,3.50
2023-05-04T11:26:15.056Z,3.90
2023-05-04T11:27:15.054Z,3.70
2023-05-04T11:28:15.037Z,3.60
2023-05-04T11:29:15.023Z,3.50
2023-05-04T11:30:15.061Z,3.60
2023-05-04T11:31:15.088Z,3.60
2023-05-04T11:32:15.008Z,3.40
2023-05-04T11:33:14.960Z,3.20
2023-05-04T11:34:14.939Z,3.10
2023-05-04T11:35:14.924Z,3.50
2023-05-04T11:36:14.977Z,3.50
2023-05-04T11:37:14.896Z,3.60
2023-05-04T11:38:14.899Z,3.80
2023-05-04T11:39:14.866Z,3.20
2023-05-04T11:40:14.977Z,3.30
2023-05-04T11:41:14.845Z,3.20
2023-05-04T11:42:14.862Z,3.60
2023-05-04T11:43:14.830Z,3.20
2023-05-04T11:44:14.798Z,3.40
2023-05-04T11:45:14.807Z,3.50
2023-05-04T11:46:14.860Z,3.50
2023-05-04T11:47:14.822Z,3.40
2023-05-04T11:48:15.963Z,3.40
2023-05-04T11:49:14.743Z,3.30
2023-05-04T11:50:14.764Z,3.30
2023-05-04T11:51:14.714Z,3.50
2023-05-04T11:52:14.728Z,3.50
2023-05-04T11:53:14.687Z,3.30
2023-05-04T11:54:14.735Z,3.20
2023-05-04T11:55:14.654Z,3.70
2023-05-04T11:56:14.665Z,3.50
2023-05-04T11:57:14.646Z,3.50
2023-05-04T11:58:14.661Z,3.50
2023-05-04T11:59:14.617Z,3.70
2023-05-04T12:00:14.605Z,3.60
2023-05-04T12:01:14.591Z,3.70
2023-05-04T12:02:14.585Z,3.90
2023-05-04T12:03:14.652Z,3.80
2023-05-04T12:04:14.573Z,3.30
2023-05-04T12:05:14.555Z,3.60
2023-05-04T12:06:14.543Z,3.60
2023-05-04T12:07:14.507Z,3.80
2023-05-04T12:08:14.495Z,3.30
2023-05-04T12:09:14.480Z,3.60
2023-05-04T12:10:14.488Z,3.30
2023-05-04T12:11:14.568Z,3.30
2023-05-04T12:12:14.429Z,3.40
2023-05-04T12:13:14.550Z,3.30
2023-05-04T12:14:14.444Z,3.30
2023-05-04T12:15:14.401Z,3.20
2023-05-04T12:16:14.416Z,3.40
2023-05-04T12:17:14.414Z,3.30
2023-05-04T12:18:14.366Z,3.40
2023-05-04T12:19:14.357Z,3.10
2023-05-04T12:20:14.354Z,3.20
2023-05-04T12:21:14.331Z,3.40
2023-05-04T12:22:14.336Z,3.30
2023-05-04T12:23:14.296Z,3.20
2023-05-04T12:24:14.283Z,3.60
2023-05-04T12:25:14.285Z,3.70
2023-05-04T12:26:14.268Z,3.60
2023-05-04T12:27:14.338Z,4.00
2023-05-04T12:28:14.229Z,3.90
2023-05-04T12:29:14.218Z,3.80
2023-05-04T12:30:14.240Z,4.00
2023-05-04T12:31:14.246Z,4.30
2023-05-04T12:32:14.289Z,4.40
2023-05-04T12:33:14.185Z,4.40
2023-05-04T12:34:14.204Z,4.10
2023-05-04T12:35:14.136Z,4.00
2023-05-04T12:36:14.118Z,4.30
2023-05-04T12:37:14.145Z,4.40
2023-05-04T12:38:14.106Z,4.00
2023-05-04T12:39:14.145Z,4.10
2023-05-04T12:40:27.742Z,3.90
2023-05-04T12:41:14.104Z,4.60
2023-05-04T12:42:14.038Z,4.10
2023-05-04T12:43:14.015Z,4.20
2023-05-04T12:44:14.041Z,4.00
2023-05-04T12:45:13.998Z,4.00
2023-05-04T12:46:14.066Z,4.00
2023-05-04T12:47:13.984Z,4.00
2023-05-04T12:48:13.979Z,4.10
2023-05-04T12:49:13.987Z,3.90
2023-05-04T12:50:13.955Z,4.00
2023-05-04T12:51:13.928Z,3.90
2023-05-04T12:52:13.905Z,3.90
2023-05-04T12:53:13.945Z,3.90
2023-05-04T12:54:13.890Z,3.90
2023-05-04T12:55:13.937Z,4.00
2023-05-04T12:56:13.865Z,4.00
2023-05-04T12:57:13.860Z,4.20
2023-05-04T12:58:13.830Z,3.80
2023-05-04T12:59:13.845Z,3.90
2023-05-04T13:00:13.813Z,3.50
2023-05-04T13:01:13.867Z,3.90
2023-05-04T13:02:13.878Z,4.00
2023-05-04T13:03:13.874Z,3.60
2023-05-04T13:04:13.760Z,3.80
2023-05-04T13:05:13.826Z,3.80
2023-05-04T13:06:13.736Z,3.70
2023-05-04T13:07:13.724Z,4.10
2023-05-04T13:08:13.738Z,3.90